Time;durP1;ratioP1;P1;durP2;ratioP2;P2;SDS_P1;SDS_P2;PMS_P1;PMS_P2;Temp;Humidity;BMP_temperature;BMP_pressure;BME280_temperature;BME280_humidity;BME280_pressure;Samples;Min_cycle;Max_cycle;Signal;HPM_P1;HPM_P2
2022/10/03 00:00:21;;;;;;;4.50;1.67;;;19.60;99.90;;;;;;5062091;28;20067;-75
2022/10/03 00:03:19;;;;;;;4.40;1.20;;;19.60;99.90;;;;;;5064736;28;20032;-76
2022/10/03 00:06:14;;;;;;;3.85;1.25;;;19.60;99.90;;;;;;5044545;28;20021;-75
2022/10/03 00:09:15;;;;;;;4.85;1.60;;;19.50;99.90;;;;;;5045372;28;20037;-74
2022/10/03 00:12:03;;;;;;;3.97;1.08;;;19.50;99.90;;;;;;5057201;28;20033;-75
2022/10/03 00:14:53;;;;;;;4.38;1.30;;;19.50;99.90;;;;;;5040466;28;20568;-75
2022/10/03 00:17:49;;;;;;;5.00;1.00;;;19.50;99.90;;;;;;5051347;28;20045;-76
2022/10/03 00:20:18;;;;;;;5.20;1.38;;;19.40;99.90;;;;;;5045290;28;20040;-75
2022/10/03 00:22:46;;;;;;;6.00;1.60;;;19.40;99.90;;;;;;5078553;28;20028;-75
2022/10/03 00:25:52;;;;;;;4.82;1.33;;;19.40;99.90;;;;;;5071520;28;20033;-75
2022/10/03 00:28:42;;;;;;;3.75;1.38;;;19.30;99.90;;;;;;5035702;28;20059;-74
2022/10/03 00:31:45;;;;;;;5.78;1.33;;;19.40;99.90;;;;;;5027375;28;20096;-75
2022/10/03 00:34:20;;;;;;;;;;;19.40;99.90;;;;;;5034295;28;20065;-75
2022/10/03 00:37:04;;;;;;;6.50;1.50;;;19.30;99.90;;;;;;5055887;28;19917;-75
2022/10/03 00:39:53;;;;;;;5.15;1.70;;;19.20;99.90;;;;;;5042496;28;20057;-75
2022/10/03 00:42:52;;;;;;;6.13;1.40;;;19.20;99.90;;;;;;5041801;28;20042;-75
2022/10/03 00:45:55;;;;;;;3.83;1.40;;;19.30;99.90;;;;;;5061418;28;20097;-74
2022/10/03 00:49:02;;;;;;;6.70;1.67;;;19.20;99.90;;;;;;5060429;28;20025;-75
2022/10/03 00:51:28;;;;;;;6.03;1.80;;;19.20;99.90;;;;;;5028388;28;20040;-74
2022/10/03 00:54:02;;;;;;;4.78;1.45;;;19.20;99.90;;;;;;5063013;28;20040;-75
2022/10/03 00:56:50;;;;;;;4.30;1.40;;;19.10;99.90;;;;;;5040528;28;20038;-75
2022/10/03 00:59:22;;;;;;;4.65;1.60;;;19.10;99.90;;;;;;5049983;28;20025;-76
2022/10/03 01:01:49;;;;;;;5.28;1.50;;;19.10;99.90;;;;;;5059474;28;20033;-75
2022/10/03 01:04:48;;;;;;;3.25;1.20;;;19.10;99.90;;;;;;5060156;28;20222;-75
2022/10/03 01:07:39;;;;;;;3.45;1.52;;;19.00;99.90;;;;;;5059214;28;20426;-75
2022/10/03 01:10:21;;;;;;;4.35;1.17;;;19.10;99.90;;;;;;5057456;28;20040;-75
2022/10/03 01:12:59;;;;;;;3.67;1.30;;;19.20;99.90;;;;;;5054753;28;20028;-74
2022/10/03 01:16:00;;;;;;;8.05;1.40;;;19.10;99.90;;;;;;5064203;28;20025;-75
2022/10/03 01:18:33;;;;;;;6.45;1.42;;;19.10;99.90;;;;;;5059065;28;20024;-76
2022/10/03 01:21:25;;;;;;;7.03;1.60;;;19.00;99.90;;;;;;5060191;28;20039;-75
2022/10/03 01:24:15;;;;;;;7.97;1.45;;;18.90;99.90;;;;;;5079065;28;20064;-75
2022/10/03 01:27:04;;;;;;;4.22;1.33;;;18.90;99.90;;;;;;5061571;28;20047;-75
2022/10/03 01:32:56;;;;;;;6.75;1.70;;;18.80;99.90;;;;;;5039111;28;20168;-76
2022/10/03 01:36:02;;;;;;;4.38;1.05;;;18.80;99.90;;;;;;5053032;28;20046;-74
2022/10/03 01:38:50;;;;;;;8.68;1.33;;;18.80;99.90;;;;;;4997015;28;20551;-75
2022/10/03 01:41:32;;;;;;;5.13;1.25;;;18.80;99.90;;;;;;5058234;28;20033;-75
2022/10/03 01:44:08;;;;;;;4.55;1.23;;;18.80;99.90;;;;;;5059626;28;20358;-75
2022/10/03 01:46:51;;;;;;;6.72;1.13;;;18.80;99.90;;;;;;5072856;28;20064;-75
2022/10/03 01:50:02;;;;;;;5.22;1.60;;;18.70;99.90;;;;;;5048352;28;20383;-75
2022/10/03 01:53:07;;;;;;;6.22;1.80;;;18.70;99.90;;;;;;5029348;28;20564;-74
2022/10/03 01:55:36;;;;;;;6.18;1.20;;;18.70;99.90;;;;;;5068174;28;20045;-75
2022/10/03 01:58:06;;;;;;;5.45;1.45;;;18.70;99.90;;;;;;5057681;28;20082;-74
2022/10/03 02:00:46;;;;;;;4.28;1.48;;;18.70;99.90;;;;;;5071271;28;20487;-75
2022/10/03 02:03:21;;;;;;;6.47;1.92;;;18.70;99.90;;;;;;5056918;28;20041;-74
2022/10/03 02:05:47;;;;;;;3.45;1.45;;;18.70;99.90;;;;;;5058385;28;20082;-75
2022/10/03 02:08:46;;;;;;;7.18;1.75;;;18.70;99.90;;;;;;5065216;28;20037;-75
2022/10/03 02:11:55;;;;;;;7.93;1.95;;;18.70;99.90;;;;;;5059170;28;20377;-75
2022/10/03 02:14:24;;;;;;;7.55;2.20;;;18.60;99.90;;;;;;5059339;28;20731;-74
2022/10/03 02:17:29;;;;;;;5.93;1.90;;;18.60;99.90;;;;;;5065121;28;20037;-75
2022/10/03 02:20:12;;;;;;;3.97;1.48;;;18.60;99.90;;;;;;5055476;28;20044;-75
2022/10/03 02:22:52;;;;;;;6.85;1.88;;;18.60;99.90;;;;;;5058057;28;20033;-75
2022/10/03 02:25:58;;;;;;;6.47;1.60;;;18.60;99.90;;;;;;5047224;28;20029;-75
2022/10/03 02:28:39;;;;;;;4.30;1.17;;;18.70;99.90;;;;;;5075353;28;20059;-76
2022/10/03 02:31:44;;;;;;;7.68;1.67;;;18.70;99.90;;;;;;5070577;28;20031;-76
2022/10/03 02:34:34;;;;;;;4.07;1.55;;;18.70;99.90;;;;;;5025328;28;20041;-75
2022/10/03 02:37:34;;;;;;;7.65;1.65;;;18.70;99.90;;;;;;5040802;28;20025;-75
2022/10/03 02:40:27;;;;;;;4.93;1.98;;;18.70;99.90;;;;;;5054783;28;20055;-75
2022/10/03 02:43:24;;;;;;;8.18;2.60;;;18.60;99.90;;;;;;5052817;28;20488;-75
2022/10/03 02:46:14;;;;;;;5.20;1.50;;;18.70;99.90;;;;;;5056495;28;20033;-75
2022/10/03 02:49:09;;;;;;;5.28;1.98;;;18.80;99.90;;;;;;5023266;28;20029;-76
2022/10/03 02:51:49;;;;;;;8.20;2.90;;;18.90;99.90;;;;;;5058061;28;20070;-75
2022/10/03 02:54:34;;;;;;;5.97;2.50;;;18.90;99.90;;;;;;5072975;28;20032;-75
2022/10/03 02:57:38;;;;;;;6.68;2.20;;;18.90;99.90;;;;;;5058844;28;20037;-75
2022/10/03 03:00:21;;;;;;;6.07;1.95;;;18.90;99.90;;;;;;5071249;28;20029;-75
2022/10/03 03:03:17;;;;;;;7.35;2.28;;;18.80;99.90;;;;;;5058853;28;20036;-76
2022/10/03 03:06:03;;;;;;;6.43;2.17;;;18.80;99.90;;;;;;5022271;28;20095;-76
2022/10/03 03:08:51;;;;;;;4.88;2.20;;;18.80;99.90;;;;;;5039657;28;20030;-74
2022/10/03 03:11:41;;;;;;;4.55;1.70;;;18.90;99.90;;;;;;5040086;28;20033;-75
2022/10/03 03:14:17;;;;;;;6.00;2.20;;;19.00;99.90;;;;;;5057041;28;20086;-75
2022/10/03 03:17:10;;;;;;;5.70;1.92;;;18.90;99.90;;;;;;5061686;28;20036;-75
2022/10/03 03:19:57;;;;;;;6.28;2.13;;;18.80;99.90;;;;;;5061088;28;20048;-75
2022/10/03 03:22:50;;;;;;;7.97;2.55;;;18.70;99.90;;;;;;5063763;28;21850;-75
2022/10/03 03:25:34;;;;;;;6.88;1.92;;;18.70;99.90;;;;;;5061263;28;20037;-75
2022/10/03 03:28:21;;;;;;;;;;;18.70;99.90;;;;;;5066750;28;20048;-76
2022/10/03 03:31:05;;;;;;;12.95;2.65;;;18.70;99.90;;;;;;5062505;28;19920;-75
2022/10/03 03:33:52;;;;;;;6.22;1.70;;;18.80;99.90;;;;;;5066192;28;20143;-75
2022/10/03 03:36:43;;;;;;;6.38;1.90;;;18.70;99.90;;;;;;5045780;28;20032;-75
2022/10/03 03:39:15;;;;;;;6.13;1.95;;;18.60;99.90;;;;;;5060854;28;20500;-75
2022/10/03 03:41:52;;;;;;;9.32;1.98;;;18.60;99.90;;;;;;5057701;28;20068;-74
2022/10/03 03:44:45;;;;;;;4.93;1.50;;;18.50;99.90;;;;;;5061645;28;20020;-75
2022/10/03 03:47:30;;;;;;;5.68;1.13;;;18.60;99.90;;;;;;5060552;28;20036;-75
2022/10/03 03:50:26;;;;;;;3.58;1.50;;;18.70;99.90;;;;;;5058350;28;20072;-75
2022/10/03 03:52:52;;;;;;;4.15;1.48;;;18.70;99.90;;;;;;5040968;28;20088;-75
2022/10/03 03:55:33;;;;;;;5.15;0.90;;;18.70;99.90;;;;;;5043492;28;20157;-74
2022/10/03 03:58:16;;;;;;;5.20;0.93;;;18.70;99.90;;;;;;5041216;28;20033;-75
2022/10/03 04:01:13;;;;;;;3.22;1.02;;;18.70;99.90;;;;;;5060730;28;20044;-75
2022/10/03 04:04:03;;;;;;;3.28;0.88;;;18.80;99.90;;;;;;5048382;28;20037;-76
2022/10/03 04:06:55;;;;;;;4.95;1.10;;;18.80;99.90;;;;;;5075735;28;20199;-74
2022/10/03 04:09:38;;;;;;;4.25;0.90;;;18.80;99.90;;;;;;5052340;28;20048;-75
2022/10/03 04:12:08;;;;;;;3.67;1.20;;;18.90;99.90;;;;;;5065902;28;20136;-75
2022/10/03 04:15:03;;;;;;;3.45;0.80;;;19.00;99.90;;;;;;5064973;28;20476;-75
2022/10/03 04:21:13;;;;;;;4.40;0.88;;;19.10;99.90;;;;;;5049089;28;20179;-75
2022/10/03 04:24:00;;;;;;;3.47;0.63;;;19.30;99.90;;;;;;5024351;28;20025;-75
2022/10/03 04:26:52;;;;;;;2.70;0.90;;;19.40;99.90;;;;;;5042751;28;20068;-75
2022/10/03 04:29:39;;;;;;;4.22;0.82;;;19.30;99.90;;;;;;5040492;28;20021;-74
2022/10/03 04:32:25;;;;;;;3.00;0.80;;;19.30;99.90;;;;;;5075654;28;20043;-75
2022/10/03 04:35:02;;;;;;;4.80;1.10;;;19.20;99.90;;;;;;5057413;28;20041;-75
2022/10/03 04:37:47;;;;;;;3.67;1.30;;;19.00;99.90;;;;;;5035976;28;20524;-75
2022/10/03 04:40:44;;;;;;;6.10;1.30;;;18.90;99.90;;;;;;5038595;28;20493;-76
2022/10/03 04:43:28;;;;;;;;;;;18.80;99.90;;;;;;5053384;28;20428;-75
2022/10/03 04:46:04;;;;;;;4.70;1.10;;;18.70;99.90;;;;;;5064742;28;19974;-75
2022/10/03 04:48:53;;;;;;;4.63;1.35;;;18.60;99.90;;;;;;5062768;28;20095;-75
2022/10/03 04:51:24;;;;;;;4.55;1.35;;;18.60;99.90;;;;;;5059045;28;20392;-76
2022/10/03 04:54:15;;;;;;;5.28;1.30;;;18.50;99.90;;;;;;5059473;28;20436;-75
2022/10/03 04:57:00;;;;;;;5.13;1.50;;;18.60;99.90;;;;;;5045705;28;20076;-75
2022/10/03 05:00:01;;;;;;;5.15;1.38;;;18.60;99.90;;;;;;5040903;28;20025;-73
2022/10/03 05:02:42;;;;;;;5.72;2.00;;;18.40;99.90;;;;;;5032357;28;20033;-72
2022/10/03 05:05:20;;;;;;;7.65;2.50;;;18.40;99.90;;;;;;5040051;28;20048;-72
2022/10/03 05:08:17;;;;;;;10.98;5.63;;;18.40;99.90;;;;;;5071442;28;20029;-71
2022/10/03 05:10:55;;;;;;;7.85;2.78;;;18.50;99.90;;;;;;5057217;28;20039;-72
2022/10/03 05:13:59;;;;;;;6.38;1.70;;;18.50;99.90;;;;;;5056884;28;20020;-72
2022/10/03 05:16:30;;;;;;;8.63;2.03;;;18.40;99.90;;;;;;5062558;28;20027;-72
2022/10/03 05:19:28;;;;;;;9.23;2.63;;;18.30;99.90;;;;;;5058083;28;20064;-73
2022/10/03 05:22:03;;;;;;;6.57;1.95;;;18.30;99.90;;;;;;5049945;28;20127;-71
2022/10/03 05:24:51;;;;;;;5.75;2.00;;;18.30;99.90;;;;;;5043885;28;20404;-72
2022/10/03 05:27:44;;;;;;;5.75;1.63;;;18.30;99.90;;;;;;5042736;28;20487;-73
2022/10/03 05:30:24;;;;;;;4.57;1.67;;;18.20;99.90;;;;;;5046136;28;20040;-73
2022/10/03 05:33:14;;;;;;;9.50;2.50;;;18.10;99.90;;;;;;5042070;28;20188;-74
2022/10/03 05:36:02;;;;;;;5.88;1.98;;;18.10;99.90;;;;;;5043004;28;20040;-74
2022/10/03 05:38:59;;;;;;;9.15;2.03;;;18.10;99.90;;;;;;5049086;28;20093;-75
2022/10/03 05:41:30;;;;;;;8.25;2.63;;;18.10;99.90;;;;;;5064698;28;20524;-73
2022/10/03 05:44:18;;;;;;;7.97;3.42;;;18.00;99.90;;;;;;5046437;28;20044;-73
2022/10/03 05:46:54;;;;;;;5.75;2.35;;;18.00;99.90;;;;;;5071319;28;20052;-73
2022/10/03 05:49:24;;;;;;;6.05;2.17;;;18.00;99.90;;;;;;5059056;28;20032;-73
2022/10/03 05:52:00;;;;;;;6.03;2.85;;;18.00;99.90;;;;;;5061867;28;20483;-74
2022/10/03 05:54:39;;;;;;;7.50;2.17;;;18.10;99.90;;;;;;5058363;28;20044;-73
2022/10/03 05:57:27;;;;;;;5.50;2.03;;;18.10;99.90;;;;;;5061142;28;20048;-74
2022/10/03 06:00:14;;;;;;;6.05;2.75;;;18.10;99.90;;;;;;5061267;28;20870;-73
2022/10/03 06:03:04;;;;;;;6.38;2.30;;;18.10;99.90;;;;;;5037453;28;20417;-74
2022/10/03 06:05:52;;;;;;;6.10;2.35;;;18.10;99.90;;;;;;5058206;28;20025;-74
2022/10/03 06:08:19;;;;;;;7.22;2.83;;;18.00;99.90;;;;;;5060352;28;20036;-74
2022/10/03 06:11:19;;;;;;;9.88;2.40;;;18.00;99.90;;;;;;5071733;28;20024;-74
2022/10/03 06:14:00;;;;;;;8.15;2.80;;;18.10;99.90;;;;;;5036695;28;20029;-74
2022/10/03 06:16:54;;;;;;;6.13;2.30;;;18.20;99.90;;;;;;5040697;28;20448;-73
2022/10/03 06:19:42;;;;;;;7.95;2.50;;;18.30;99.90;;;;;;5053370;28;20037;-74
2022/10/03 06:22:41;;;;;;;11.18;2.40;;;18.40;99.90;;;;;;5055061;28;20527;-74
2022/10/03 06:25:13;;;;;;;6.72;1.77;;;18.50;99.90;;;;;;5057834;28;20036;-75
2022/10/03 06:28:17;;;;;;;6.93;2.13;;;18.50;99.90;;;;;;5057567;28;20477;-73
2022/10/03 06:31:20;;;;;;;7.40;2.38;;;18.50;99.90;;;;;;5040966;28;20491;-74
2022/10/03 06:34:12;;;;;;;12.35;2.40;;;18.60;99.90;;;;;;5053570;28;20035;-73
2022/10/03 06:36:56;;;;;;;6.20;2.13;;;18.60;99.90;;;;;;5071156;28;20044;-74
2022/10/03 06:39:34;;;;;;;5.50;1.92;;;18.70;99.90;;;;;;5061699;28;20577;-73
2022/10/03 06:42:24;;;;;;;8.65;2.13;;;18.80;99.90;;;;;;5056578;28;20041;-74
2022/10/03 06:45:17;;;;;;;7.32;2.38;;;18.90;99.90;;;;;;5059235;28;20860;-74
2022/10/03 06:48:02;;;;;;;8.15;2.25;;;19.00;99.90;;;;;;5036767;28;20037;-74
2022/10/03 06:50:27;;;;;;;6.72;2.03;;;19.00;99.90;;;;;;5032885;28;20867;-74
2022/10/03 06:52:57;;;;;;;4.30;1.60;;;19.20;99.90;;;;;;5048078;28;20041;-74
2022/10/03 06:55:37;;;;;;;7.03;1.95;;;19.30;99.90;;;;;;5036077;28;21466;-75
2022/10/03 06:58:46;;;;;;;7.07;1.90;;;19.30;99.90;;;;;;5036973;28;20052;-74
2022/10/03 07:01:12;;;;;;;7.38;2.10;;;19.40;99.90;;;;;;5035941;28;20076;-74
2022/10/03 07:04:12;;;;;;;6.88;1.90;;;19.50;99.90;;;;;;5044605;28;20053;-74
2022/10/03 07:07:16;;;;;;;5.45;1.92;;;19.50;99.90;;;;;;5035176;28;20402;-74
2022/10/03 07:10:11;;;;;;;5.22;1.80;;;19.60;99.90;;;;;;5046609;28;20028;-75
2022/10/03 07:12:59;;;;;;;8.18;2.33;;;19.70;99.90;;;;;;5045800;28;20632;-74
2022/10/03 07:16:19;;;;;;;7.28;1.90;;;19.80;99.90;;;;;;5056190;28;20029;-75
2022/10/03 07:19:15;;;;;;;5.80;1.60;;;19.90;99.90;;;;;;5029608;28;20033;-74
2022/10/03 07:22:01;;;;;;;6.57;2.10;;;20.00;99.90;;;;;;5040734;28;20520;-73
2022/10/03 07:24:57;;;;;;;8.10;2.83;;;20.20;99.90;;;;;;5069547;28;20045;-75
2022/10/03 07:27:38;;;;;;;8.57;1.92;;;20.20;99.90;;;;;;5056281;28;20045;-74
2022/10/03 07:30:14;;;;;;;6.05;1.90;;;20.30;99.90;;;;;;5055107;28;20123;-74
2022/10/03 07:33:17;;;;;;;6.65;1.98;;;20.30;99.90;;;;;;5053288;28;20519;-75
2022/10/03 07:39:31;;;;;;;6.30;1.90;;;20.60;99.90;;;;;;5036819;28;20052;-74
2022/10/03 07:42:32;;;;;;;6.47;2.20;;;20.80;99.90;;;;;;5044023;28;20052;-74
2022/10/03 07:45:33;;;;;;;5.07;1.67;;;20.80;99.90;;;;;;5072854;28;20052;-75
2022/10/03 07:48:32;;;;;;;5.30;1.70;;;20.90;99.90;;;;;;5040102;28;20049;-74
2022/10/03 07:51:36;;;;;;;6.55;2.28;;;21.00;99.90;;;;;;5046866;28;20068;-74
2022/10/03 07:54:23;;;;;;;9.27;4.88;;;21.20;99.90;;;;;;5050562;28;20041;-74
2022/10/03 07:57:05;;;;;;;13.23;3.95;;;21.40;99.90;;;;;;5057380;28;20045;-74
2022/10/03 07:59:53;;;;;;;8.95;2.70;;;21.50;99.90;;;;;;5048477;28;20148;-75
2022/10/03 08:02:22;;;;;;;8.40;2.33;;;21.50;99.90;;;;;;5054107;28;20045;-75
2022/10/03 08:05:14;;;;;;;8.52;2.78;;;21.70;99.90;;;;;;5056610;28;20400;-75
2022/10/03 08:07:49;;;;;;;9.85;3.03;;;22.00;99.90;;;;;;5053631;28;20142;-74
2022/10/03 08:11:09;;;;;;;8.43;2.75;;;22.00;99.90;;;;;;5054582;28;20056;-75
2022/10/03 08:13:56;;;;;;;7.40;2.95;;;22.10;99.90;;;;;;5055144;28;20093;-76
2022/10/03 08:16:46;;;;;;;7.80;2.72;;;22.20;99.90;;;;;;5055554;28;20537;-75
2022/10/03 08:19:32;;;;;;;10.73;3.33;;;23.00;99.90;;;;;;5054345;28;20403;-75
2022/10/03 08:22:10;;;;;;;6.03;2.90;;;24.40;99.90;;;;;;5042869;28;20556;-74
2022/10/03 08:25:13;;;;;;;7.00;2.70;;;25.50;99.90;;;;;;5072690;28;20475;-75
2022/10/03 08:27:51;;;;;;;5.38;2.63;;;24.90;99.90;;;;;;5049519;28;20281;-76
2022/10/03 08:30:21;;;;;;;9.00;2.38;;;26.10;99.90;;;;;;5038636;28;20021;-75
2022/10/03 08:32:59;;;;;;;8.50;3.10;;;27.20;99.90;;;;;;5049068;28;20029;-75
2022/10/03 08:35:46;;;;;;;6.10;2.53;;;27.50;99.90;;;;;;5038453;28;20117;-73
2022/10/03 08:38:47;;;;;;;7.88;3.55;;;28.20;99.90;;;;;;5041194;28;20029;-75
2022/10/03 08:41:44;;;;;;;7.60;2.78;;;26.90;99.90;;;;;;5038917;28;20183;-75
2022/10/03 08:44:37;;;;;;;6.65;2.67;;;27.00;99.90;;;;;;5035466;28;20069;-74
2022/10/03 08:47:15;;;;;;;7.15;3.00;;;28.00;99.90;;;;;;5044274;28;20037;-75
2022/10/03 08:50:09;;;;;;;9.02;3.30;;;27.90;99.90;;;;;;5041811;28;20132;-74
2022/10/03 08:52:59;;;;;;;6.18;2.80;;;27.80;99.90;;;;;;5073910;28;20139;-74
2022/10/03 08:55:44;;;;;;;8.73;3.40;;;28.70;99.90;;;;;;5062592;28;20415;-75
2022/10/03 08:58:36;;;;;;;15.70;6.90;;;28.50;99.90;;;;;;5058316;28;20052;-74
2022/10/03 09:01:40;;;;;;;8.05;3.55;;;29.50;99.90;;;;;;5077883;27;20045;-74
2022/10/03 09:04:28;;;;;;;8.38;3.15;;;29.80;99.90;;;;;;5049736;28;20507;-75
2022/10/03 09:07:15;;;;;;;7.35;3.38;;;29.90;99.90;;;;;;5061283;28;20074;-75
2022/10/03 09:10:15;;;;;;;7.50;3.25;;;30.10;99.90;;;;;;5044242;28;20054;-75
2022/10/03 09:13:08;;;;;;;6.75;3.38;;;30.10;99.90;;;;;;5051705;28;20037;-75
2022/10/03 09:15:40;;;;;;;9.75;3.80;;;30.00;99.90;;;;;;5038552;28;20029;-74
2022/10/03 09:18:28;;;;;;;6.97;3.22;;;30.20;99.90;;;;;;5046678;28;20051;-73
2022/10/03 09:21:11;;;;;;;7.85;3.90;;;30.50;99.90;;;;;;5058721;28;20150;-75
2022/10/03 09:24:05;;;;;;;5.40;3.10;;;30.40;99.90;;;;;;5057966;28;20043;-75
2022/10/03 09:26:59;;;;;;;7.72;3.25;;;30.30;99.90;;;;;;5037596;28;20040;-75
2022/10/03 09:29:30;;;;;;;5.95;3.22;;;30.20;99.90;;;;;;5054332;28;20760;-75
2022/10/03 09:32:34;;;;;;;10.25;3.17;;;29.50;99.90;;;;;;5047540;28;20033;-75
2022/10/03 09:35:37;;;;;;;6.75;3.45;;;28.90;99.90;;;;;;5036097;28;20535;-74
2022/10/03 09:38:42;;;;;;;10.35;3.33;;;27.90;99.90;;;;;;5053511;28;20040;-75
2022/10/03 09:41:42;;;;;;;9.23;2.85;;;27.40;99.90;;;;;;5061090;28;20530;-74
2022/10/03 09:44:33;;;;;;;7.13;3.47;;;26.90;99.90;;;;;;5072561;28;20036;-73
2022/10/03 09:47:26;;;;;;;6.82;3.42;;;26.70;99.90;;;;;;5062625;28;20040;-74
2022/10/03 09:50:20;;;;;;;9.07;2.90;;;26.40;99.90;;;;;;5043958;28;20041;-75
2022/10/03 09:53:07;;;;;;;7.95;3.65;;;26.40;99.90;;;;;;5056189;28;20053;-74
2022/10/03 09:55:44;;;;;;;10.70;3.63;;;26.40;99.90;;;;;;5049084;28;20033;-75
2022/10/03 09:58:32;;;;;;;10.43;3.38;;;26.30;99.90;;;;;;5043944;28;20048;-76
2022/10/03 10:01:35;;;;;;;10.52;4.45;;;26.70;99.90;;;;;;5055049;28;20036;-75
2022/10/03 10:04:19;;;;;;;10.20;3.63;;;26.80;99.90;;;;;;5025649;28;20033;-74
2022/10/03 10:06:57;;;;;;;9.45;4.53;;;27.00;99.90;;;;;;5050432;28;20411;-74
2022/10/03 10:09:45;;;;;;;10.98;4.00;;;27.40;99.90;;;;;;5055706;28;20047;-74
2022/10/03 10:12:29;;;;;;;12.02;4.05;;;27.50;99.90;;;;;;5054956;28;20052;-75
2022/10/03 10:14:55;;;;;;;7.88;3.15;;;27.60;99.90;;;;;;5056314;28;20412;-74
2022/10/03 10:17:43;;;;;;;11.55;4.25;;;28.40;99.90;;;;;;5057777;28;20033;-75
2022/10/03 10:20:19;;;;;;;8.63;3.95;;;28.70;99.90;;;;;;5037964;28;20040;-74
2022/10/03 10:23:03;;;;;;;11.75;3.88;;;28.30;99.90;;;;;;5032651;28;20030;-75
2022/10/03 10:26:38;;;;;;;13.80;4.38;;;29.10;99.90;;;;;;5027730;28;20409;-73
2022/10/03 10:29:39;;;;;;;13.25;4.15;;;29.60;99.90;;;;;;4997356;28;20031;-73
2022/10/03 10:32:29;;;;;;;10.10;3.97;;;29.80;99.90;;;;;;4987037;28;20041;-75
2022/10/03 10:35:01;;;;;;;;;;;29.80;99.90;;;;;;5050543;28;21177;-74
2022/10/03 10:37:44;;;;;;;11.10;4.38;;;30.00;99.90;;;;;;5052321;28;19917;-75
2022/10/03 10:40:48;;;;;;;10.20;4.53;;;30.30;99.90;;;;;;5035673;28;20504;-75
2022/10/03 10:43:17;;;;;;;10.35;5.03;;;30.10;99.90;;;;;;5042439;28;20029;-76
2022/10/03 10:46:27;;;;;;;13.40;4.18;;;29.20;99.90;;;;;;5045719;28;20477;-74
2022/10/03 10:49:16;;;;;;;10.40;3.70;;;29.90;99.90;;;;;;5053539;28;20116;-75
2022/10/03 10:51:56;;;;;;;8.75;3.35;;;30.90;99.90;;;;;;5039816;28;20041;-75
2022/10/03 10:55:02;;;;;;;7.88;3.75;;;31.40;99.90;;;;;;5048055;28;20516;-75
2022/10/03 10:58:15;;;;;;;8.70;3.58;;;30.90;99.90;;;;;;5048760;28;20052;-74
2022/10/03 11:01:00;;;;;;;9.10;3.75;;;30.50;99.90;;;;;;5065100;28;20049;-75
2022/10/03 11:03:26;;;;;;;7.55;3.53;;;29.90;99.90;;;;;;5035345;28;20480;-74
2022/10/03 11:06:00;;;;;;;;;;;30.00;99.90;;;;;;5034935;28;20033;-74
2022/10/03 11:09:00;;;;;;;9.30;3.53;;;28.80;99.90;;;;;;5032785;28;20411;-74
2022/10/03 11:11:53;;;;;;;8.15;3.45;;;28.10;99.90;;;;;;5034878;28;20428;-75
2022/10/03 11:15:01;;;;;;;9.77;3.42;;;28.70;99.90;;;;;;5031784;28;20049;-75
2022/10/03 11:17:48;;;;;;;8.82;4.03;;;28.00;99.90;;;;;;5032682;28;20716;-75
2022/10/03 11:21:01;;;;;;;9.23;3.45;;;28.50;99.90;;;;;;5032726;28;20033;-74
2022/10/03 11:23:54;;;;;;;9.35;3.65;;;28.30;99.90;;;;;;5028225;28;20025;-75
2022/10/03 11:26:42;;;;;;;8.45;3.25;;;29.10;99.90;;;;;;5070651;28;20119;-75
2022/10/03 11:29:39;;;;;;;7.45;3.15;;;28.30;99.90;;;;;;5049030;28;20087;-74
2022/10/03 11:32:42;;;;;;;7.57;3.20;;;28.00;99.90;;;;;;5046875;28;20037;-76
2022/10/03 11:35:27;;;;;;;10.02;3.83;;;29.30;99.90;;;;;;5049178;28;20037;-76
2022/10/03 11:38:01;;;;;;;8.88;3.60;;;29.40;99.90;;;;;;5060664;28;20048;-75
2022/10/03 11:41:16;;;;;;;6.75;3.33;;;30.10;99.90;;;;;;5037971;28;20052;-76
2022/10/03 11:44:03;;;;;;;11.45;3.78;;;28.90;99.90;;;;;;5028910;28;20484;-74
2022/10/03 11:46:53;;;;;;;10.40;3.85;;;29.50;99.90;;;;;;5039917;28;20044;-74
2022/10/03 11:49:55;;;;;;;7.28;3.60;;;30.40;99.90;;;;;;5031544;28;20468;-76
2022/10/03 11:52:27;;;;;;;7.97;3.83;;;31.40;99.90;;;;;;5037304;28;20039;-73
2022/10/03 11:55:23;;;;;;;7.97;3.28;;;31.00;99.90;;;;;;5056437;28;21580;-73
2022/10/03 11:57:59;;;;;;;9.07;3.70;;;31.40;99.90;;;;;;5038559;28;20033;-72
2022/10/03 12:00:32;;;;;;;7.55;3.60;;;30.70;99.90;;;;;;5053815;28;20033;-72
2022/10/03 12:03:25;;;;;;;9.07;3.70;;;31.60;99.90;;;;;;5056135;28;20140;-73
2022/10/03 12:09:37;;;;;;;11.05;4.25;;;30.70;99.90;;;;;;5042269;28;20045;-73
2022/10/03 12:12:27;;;;;;;10.68;4.25;;;30.70;99.90;;;;;;5062832;28;20037;-73
2022/10/03 12:14:57;;;;;;;8.57;4.38;;;30.40;99.90;;;;;;5058596;28;20037;-74
2022/10/03 12:17:36;;;;;;;8.38;4.00;;;30.80;99.90;;;;;;5052573;28;20040;-73
2022/10/03 12:20:15;;;;;;;7.88;4.43;;;30.70;99.90;;;;;;5058771;28;20033;-73
2022/10/03 12:22:49;;;;;;;9.00;3.97;;;30.40;99.90;;;;;;5058286;28;20029;-73
2022/10/03 12:25:18;;;;;;;9.20;4.20;;;29.40;99.90;;;;;;5062372;28;20082;-73
2022/10/03 12:27:57;;;;;;;8.50;3.90;;;29.10;99.90;;;;;;5057178;28;20179;-73
2022/10/03 12:30:26;;;;;;;7.75;3.83;;;29.50;99.90;;;;;;5053881;28;20033;-73
2022/10/03 12:33:31;;;;;;;9.15;4.03;;;28.90;99.90;;;;;;5059241;28;20036;-73
2022/10/03 12:36:14;;;;;;;9.25;3.60;;;29.40;99.90;;;;;;5072254;28;20051;-73
2022/10/03 12:38:47;;;;;;;8.88;4.15;;;29.00;99.90;;;;;;5056554;28;20026;-72
2022/10/03 12:41:14;;;;;;;8.63;3.97;;;28.50;99.90;;;;;;5037078;28;20361;-73
2022/10/03 12:44:04;;;;;;;9.60;3.88;;;28.40;99.90;;;;;;5038277;28;20057;-72
2022/10/03 12:47:01;;;;;;;7.70;3.42;;;28.30;99.90;;;;;;5054102;28;20029;-73
2022/10/03 12:49:57;;;;;;;9.98;4.18;;;28.30;99.90;;;;;;5057046;28;20028;-73
2022/10/03 12:52:29;;;;;;;9.07;4.70;;;27.30;99.90;;;;;;5069096;28;21294;-72
2022/10/03 12:55:30;;;;;;;9.85;4.13;;;27.50;99.90;;;;;;5060321;28;20036;-73
2022/10/03 12:58:30;;;;;;;8.13;4.28;;;26.60;99.90;;;;;;5052981;28;20029;-73
2022/10/03 13:01:28;;;;;;;19.48;11.40;;;27.90;99.90;;;;;;5058646;28;20086;-73
2022/10/03 13:04:20;;;;;;;6.18;3.90;;;27.90;99.90;;;;;;5053447;28;20445;-72
2022/10/03 13:07:14;;;;;;;7.03;3.83;;;28.40;99.90;;;;;;5041565;28;20033;-73
2022/10/03 13:09:46;;;;;;;10.13;5.10;;;29.10;99.90;;;;;;5055803;28;20075;-72
2022/10/03 13:12:20;;;;;;;9.25;3.83;;;29.30;99.90;;;;;;5058801;27;20445;-73
2022/10/03 13:15:10;;;;;;;9.80;3.17;;;29.80;99.90;;;;;;5065793;28;20043;-72
2022/10/03 13:18:14;;;;;;;9.80;3.50;;;29.60;99.90;;;;;;5036810;28;20092;-73
2022/10/03 13:20:49;;;;;;;9.15;3.20;;;29.00;99.90;;;;;;5064668;28;20056;-73
2022/10/03 13:23:15;;;;;;;9.85;2.47;;;28.20;99.90;;;;;;5038625;28;20033;-72
2022/10/03 13:25:51;;;;;;;;;;;29.40;99.90;;;;;;5040356;28;20040;-73
2022/10/03 13:28:36;;;;;;;6.30;2.15;;;29.50;99.90;;;;;;5060321;28;19912;-75
2022/10/03 13:31:17;;;;;;;6.65;2.25;;;28.70;99.90;;;;;;5057808;28;20104;-74
2022/10/03 13:33:54;;;;;;;6.13;2.05;;;28.80;99.90;;;;;;5045880;28;20504;-75
2022/10/03 13:36:34;;;;;;;6.45;1.98;;;28.90;99.90;;;;;;5031561;28;20040;-74
2022/10/03 13:39:40;;;;;;;5.55;1.58;;;29.40;99.90;;;;;;5037624;28;20132;-75
2022/10/03 13:42:35;;;;;;;4.75;1.63;;;28.70;99.90;;;;;;5042024;28;20064;-74
2022/10/03 13:45:27;;;;;;;4.82;1.40;;;27.80;99.90;;;;;;5043963;28;20120;-75
2022/10/03 13:48:07;;;;;;;6.55;1.48;;;26.40;99.90;;;;;;5050089;28;20211;-76
2022/10/03 13:50:37;;;;;;;6.43;2.05;;;27.30;99.90;;;;;;5069466;28;20083;-74
2022/10/03 13:53:38;;;;;;;6.72;1.70;;;26.30;99.90;;;;;;5054697;28;20044;-74
2022/10/03 13:56:48;;;;;;;5.50;1.63;;;26.10;99.90;;;;;;5050178;28;20038;-74
2022/10/03 13:59:46;;;;;;;6.18;1.52;;;25.70;99.90;;;;;;5056248;28;20048;-75
2022/10/03 14:02:40;;;;;;;5.22;1.58;;;25.60;99.90;;;;;;5056083;27;20032;-74
2022/10/03 14:05:42;;;;;;;4.28;1.63;;;25.70;99.90;;;;;;5048464;28;20040;-74
2022/10/03 14:08:14;;;;;;;4.63;1.15;;;25.90;99.90;;;;;;5055912;28;20102;-74
2022/10/03 14:10:52;;;;;;;4.63;1.33;;;25.40;99.90;;;;;;5054598;28;20035;-73
2022/10/03 14:13:27;;;;;;;4.88;1.42;;;25.70;99.90;;;;;;5054009;28;20056;-73
2022/10/03 14:16:20;;;;;;;4.18;1.40;;;26.10;99.90;;;;;;5052552;28;20052;-74
2022/10/03 14:19:21;;;;;;;6.13;1.67;;;25.60;99.90;;;;;;5003764;28;20025;-74
2022/10/03 14:22:38;;;;;;;7.68;1.60;;;26.20;99.90;;;;;;5034857;28;20107;-74
2022/10/03 14:25:03;;;;;;;5.00;1.40;;;26.60;99.90;;;;;;4958655;28;20046;-73
2022/10/03 14:27:47;;;;;;;7.57;1.20;;;26.70;99.90;;;;;;4957321;28;20035;-74
2022/10/03 14:30:15;;;;;;;;;;;27.20;99.90;;;;;;5011682;28;20072;-74
2022/10/03 14:32:53;;;;;;;4.80;1.90;;;26.30;99.90;;;;;;5032952;28;19923;-74
2022/10/03 14:36:03;;;;;;;6.28;1.65;;;25.60;99.90;;;;;;5044686;28;20136;-74
2022/10/03 14:38:56;;;;;;;7.38;1.60;;;26.60;99.90;;;;;;4967273;28;20125;-73
2022/10/03 14:41:31;;;;;;;9.90;1.75;;;27.80;99.90;;;;;;5043873;28;20052;-74
2022/10/03 14:44:03;;;;;;;4.78;1.73;;;28.90;99.90;;;;;;5051784;28;20400;-74
2022/10/03 14:46:38;;;;;;;5.97;2.13;;;29.30;99.90;;;;;;5068446;28;20070;-73